sensor_id;sensor_type;location;lat;lon;timestamp;temperature;humidity
10891;DHT22;5498;50.928;11.598;2023-04-03T00:00:00;2.80;89.80
10891;DHT22;5498;50.928;11.598;2023-04-03T00:03:03;3.00;89.50
10891;DHT22;5498;50.928;11.598;2023-04-03T00:06:05;3.00;89.40
10891;DHT22;5498;50.928;11.598;2023-04-03T00:09:09;2.80;89.30
10891;DHT22;5498;50.928;11.598;2023-04-03T00:12:10;3.10;90.00
10891;DHT22;5498;50.928;11.598;2023-04-03T00:15:14;2.60;90.00
10891;DHT22;5498;50.928;11.598;2023-04-03T00:18:15;2.50;90.30
10891;DHT22;5498;50.928;11.598;2023-04-03T00:21:17;2.70;90.30
10891;DHT22;5498;50.928;11.598;2023-04-03T00:24:19;2.50;90.50
10891;DHT22;5498;50.928;11.598;2023-04-03T00:27:21;2.80;90.90
10891;DHT22;5498;50.928;11.598;2023-04-03T00:30:25;2.30;90.70
10891;DHT22;5498;50.928;11.598;2023-04-03T00:33:27;2.30;91.10
10891;DHT22;5498;50.928;11.598;2023-04-03T00:36:29;2.30;91.10
10891;DHT22;5498;50.928;11.598;2023-04-03T00:39:31;2.10;91.50
10891;DHT22;5498;50.928;11.598;2023-04-03T00:42:33;2.20;91.10
10891;DHT22;5498;50.928;11.598;2023-04-03T00:45:37;2.30;91.20
10891;DHT22;5498;50.928;11.598;2023-04-03T00:48:43;2.30;91.20
10891;DHT22;5498;50.928;11.598;2023-04-03T00:51:46;2.20;91.10
10891;DHT22;5498;50.928;11.598;2023-04-03T00:54:50;2.30;91.40
10891;DHT22;5498;50.928;11.598;2023-04-03T00:57:55;1.90;91.40
10891;DHT22;5498;50.928;11.598;2023-04-03T01:01:01;1.90;91.70
10891;DHT22;5498;50.928;11.598;2023-04-03T01:04:06;1.70;91.90
10891;DHT22;5498;50.928;11.598;2023-04-03T01:07:29;1.80;92.00
10891;DHT22;5498;50.928;11.598;2023-04-03T01:10:33;1.60;92.10
10891;DHT22;5498;50.928;11.598;2023-04-03T01:13:35;2.10;92.00
10891;DHT22;5498;50.928;11.598;2023-04-03T01:16:38;1.60;92.00
10891;DHT22;5498;50.928;11.598;2023-04-03T01:19:42;1.60;92.10
10891;DHT22;5498;50.928;11.598;2023-04-03T01:22:54;1.80;92.20
10891;DHT22;5498;50.928;11.598;2023-04-03T01:25:58;1.60;92.30
10891;DHT22;5498;50.928;11.598;2023-04-03T01:29:00;1.60;92.10
10891;DHT22;5498;50.928;11.598;2023-04-03T01:32:04;1.50;92.40
10891;DHT22;5498;50.928;11.598;2023-04-03T01:35:08;1.50;92.20
10891;DHT22;5498;50.928;11.598;2023-04-03T01:38:11;1.50;92.30
10891;DHT22;5498;50.928;11.598;2023-04-03T01:41:12;1.50;92.20
10891;DHT22;5498;50.928;11.598;2023-04-03T01:44:15;1.50;92.30
10891;DHT22;5498;50.928;11.598;2023-04-03T01:47:19;1.40;92.60
10891;DHT22;5498;50.928;11.598;2023-04-03T01:50:21;1.30;92.50
10891;DHT22;5498;50.928;11.598;2023-04-03T01:53:23;1.30;92.90
10891;DHT22;5498;50.928;11.598;2023-04-03T01:56:24;1.20;92.90
10891;DHT22;5498;50.928;11.598;2023-04-03T01:59:27;1.40;92.70
10891;DHT22;5498;50.928;11.598;2023-04-03T02:02:30;1.50;92.50
10891;DHT22;5498;50.928;11.598;2023-04-03T02:05:32;1.60;92.30
10891;DHT22;5498;50.928;11.598;2023-04-03T02:08:35;1.60;92.60
10891;DHT22;5498;50.928;11.598;2023-04-03T02:11:37;1.40;92.30
10891;DHT22;5498;50.928;11.598;2023-04-03T02:14:39;1.20;92.70
10891;DHT22;5498;50.928;11.598;2023-04-03T02:17:42;1.70;92.90
10891;DHT22;5498;50.928;11.598;2023-04-03T02:20:44;1.30;92.60
10891;DHT22;5498;50.928;11.598;2023-04-03T02:23:46;1.40;92.80
10891;DHT22;5498;50.928;11.598;2023-04-03T02:26:47;1.20;92.80
10891;DHT22;5498;50.928;11.598;2023-04-03T02:29:49;1.40;92.80
10891;DHT22;5498;50.928;11.598;2023-04-03T02:32:53;1.30;92.70
10891;DHT22;5498;50.928;11.598;2023-04-03T02:35:55;1.50;92.70
10891;DHT22;5498;50.928;11.598;2023-04-03T02:38:57;1.70;92.90
10891;DHT22;5498;50.928;11.598;2023-04-03T02:41:59;1.40;92.70
10891;DHT22;5498;50.928;11.598;2023-04-03T02:45:01;1.40;92.70
10891;DHT22;5498;50.928;11.598;2023-04-03T02:48:05;1.50;92.70
10891;DHT22;5498;50.928;11.598;2023-04-03T02:51:06;1.40;92.60
10891;DHT22;5498;50.928;11.598;2023-04-03T02:54:08;1.40;92.40
10891;DHT22;5498;50.928;11.598;2023-04-03T02:57:10;1.40;92.50
10891;DHT22;5498;50.928;11.598;2023-04-03T03:00:13;1.40;92.30
10891;DHT22;5498;50.928;11.598;2023-04-03T03:03:17;1.40;92.30
10891;DHT22;5498;50.928;11.598;2023-04-03T03:06:18;1.30;92.30
10891;DHT22;5498;50.928;11.598;2023-04-03T03:09:20;1.10;92.40
10891;DHT22;5498;50.928;11.598;2023-04-03T03:12:23;1.10;92.70
10891;DHT22;5498;50.928;11.598;2023-04-03T03:15:25;0.90;92.70
10891;DHT22;5498;50.928;11.598;2023-04-03T03:18:28;0.80;92.70
10891;DHT22;5498;50.928;11.598;2023-04-03T03:21:30;0.90;93.20
10891;DHT22;5498;50.928;11.598;2023-04-03T03:24:32;0.80;92.90
10891;DHT22;5498;50.928;11.598;2023-04-03T03:27:34;0.90;93.00
10891;DHT22;5498;50.928;11.598;2023-04-03T03:30:36;0.90;92.90
10891;DHT22;5498;50.928;11.598;2023-04-03T03:33:39;0.80;93.00
10891;DHT22;5498;50.928;11.598;2023-04-03T03:36:41;0.70;93.10
10891;DHT22;5498;50.928;11.598;2023-04-03T03:39:43;1.30;93.00
10891;DHT22;5498;50.928;11.598;2023-04-03T03:42:45;0.60;92.70
10891;DHT22;5498;50.928;11.598;2023-04-03T03:45:50;0.70;93.00
10891;DHT22;5498;50.928;11.598;2023-04-03T03:48:54;0.50;93.30
10891;DHT22;5498;50.928;11.598;2023-04-03T03:51:56;0.30;93.40
10891;DHT22;5498;50.928;11.598;2023-04-03T03:54:58;0.40;93.50
10891;DHT22;5498;50.928;11.598;2023-04-03T03:58:00;0.40;93.70
10891;DHT22;5498;50.928;11.598;2023-04-03T04:01:02;0.70;93.90
10891;DHT22;5498;50.928;11.598;2023-04-03T04:04:05;0.30;93.80
10891;DHT22;5498;50.928;11.598;2023-04-03T04:07:07;0.30;93.70
10891;DHT22;5498;50.928;11.598;2023-04-03T04:10:09;0.20;93.80
10891;DHT22;5498;50.928;11.598;2023-04-03T04:13:11;0.20;93.80
10891;DHT22;5498;50.928;11.598;2023-04-03T04:16:13;0.30;93.90
10891;DHT22;5498;50.928;11.598;2023-04-03T04:19:16;0.30;94.10
10891;DHT22;5498;50.928;11.598;2023-04-03T04:22:18;0.20;93.90
10891;DHT22;5498;50.928;11.598;2023-04-03T04:25:20;0.10;94.00
10891;DHT22;5498;50.928;11.598;2023-04-03T04:28:22;0.00;94.00
10891;DHT22;5498;50.928;11.598;2023-04-03T04:31:24;0.20;94.30
10891;DHT22;5498;50.928;11.598;2023-04-03T04:34:27;-0.10;94.20
10891;DHT22;5498;50.928;11.598;2023-04-03T04:37:29;0.10;94.20
10891;DHT22;5498;50.928;11.598;2023-04-03T04:40:31;-0.10;94.10
10891;DHT22;5498;50.928;11.598;2023-04-03T04:43:33;0.20;94.30
10891;DHT22;5498;50.928;11.598;2023-04-03T04:46:35;-0.20;94.50
10891;DHT22;5498;50.928;11.598;2023-04-03T04:49:38;-0.20;94.40
10891;DHT22;5498;50.928;11.598;2023-04-03T04:52:40;0.00;94.50
10891;DHT22;5498;50.928;11.598;2023-04-03T04:55:41;-0.30;94.50
10891;DHT22;5498;50.928;11.598;2023-04-03T04:58:43;-0.30;94.60
10891;DHT22;5498;50.928;11.598;2023-04-03T05:01:45;-0.40;94.60
10891;DHT22;5498;50.928;11.598;2023-04-03T05:04:48;-0.30;94.80
10891;DHT22;5498;50.928;11.598;2023-04-03T05:07:52;-0.20;94.70
10891;DHT22;5498;50.928;11.598;2023-04-03T05:10:54;-0.10;94.50
10891;DHT22;5498;50.928;11.598;2023-04-03T05:13:56;0.00;94.30
10891;DHT22;5498;50.928;11.598;2023-04-03T05:16:58;0.10;94.00
10891;DHT22;5498;50.928;11.598;2023-04-03T05:20:01;0.30;93.90
10891;DHT22;5498;50.928;11.598;2023-04-03T05:23:04;0.10;94.00
10891;DHT22;5498;50.928;11.598;2023-04-03T05:26:07;0.00;94.00
10891;DHT22;5498;50.928;11.598;2023-04-03T05:29:09;0.10;94.00
10891;DHT22;5498;50.928;11.598;2023-04-03T05:32:11;0.30;93.80
10891;DHT22;5498;50.928;11.598;2023-04-03T05:35:15;0.30;93.70
10891;DHT22;5498;50.928;11.598;2023-04-03T05:38:17;0.50;93.30
10891;DHT22;5498;50.928;11.598;2023-04-03T05:41:19;0.50;93.20
10891;DHT22;5498;50.928;11.598;2023-04-03T05:44:21;0.80;93.20
10891;DHT22;5498;50.928;11.598;2023-04-03T05:47:23;0.80;93.10
10891;DHT22;5498;50.928;11.598;2023-04-03T05:50:28;0.50;92.80
10891;DHT22;5498;50.928;11.598;2023-04-03T05:53:32;0.30;93.00
10891;DHT22;5498;50.928;11.598;2023-04-03T05:56:37;0.30;93.20
10891;DHT22;5498;50.928;11.598;2023-04-03T05:59:38;0.20;93.30
10891;DHT22;5498;50.928;11.598;2023-04-03T06:02:40;0.40;93.80
10891;DHT22;5498;50.928;11.598;2023-04-03T06:05:43;0.50;94.50
10891;DHT22;5498;50.928;11.598;2023-04-03T06:08:46;0.60;94.60
10891;DHT22;5498;50.928;11.598;2023-04-03T06:11:48;0.90;96.00
10891;DHT22;5498;50.928;11.598;2023-04-03T06:14:50;1.30;97.20
10891;DHT22;5498;50.928;11.598;2023-04-03T06:17:52;1.40;95.70
10891;DHT22;5498;50.928;11.598;2023-04-03T06:20:55;1.70;95.30
10891;DHT22;5498;50.928;11.598;2023-04-03T06:23:58;1.70;94.40
10891;DHT22;5498;50.928;11.598;2023-04-03T06:27:00;2.10;95.10
10891;DHT22;5498;50.928;11.598;2023-04-03T06:30:03;2.20;94.40
10891;DHT22;5498;50.928;11.598;2023-04-03T06:33:05;2.30;93.40
10891;DHT22;5498;50.928;11.598;2023-04-03T06:36:11;2.10;92.80
10891;DHT22;5498;50.928;11.598;2023-04-03T06:39:15;1.90;91.30
10891;DHT22;5498;50.928;11.598;2023-04-03T06:42:18;2.00;90.50
10891;DHT22;5498;50.928;11.598;2023-04-03T06:45:21;2.10;90.40
10891;DHT22;5498;50.928;11.598;2023-04-03T06:48:31;2.20;90.00
10891;DHT22;5498;50.928;11.598;2023-04-03T06:51:34;2.00;88.60
10891;DHT22;5498;50.928;11.598;2023-04-03T06:54:38;2.20;89.30
10891;DHT22;5498;50.928;11.598;2023-04-03T06:57:40;2.40;88.80
10891;DHT22;5498;50.928;11.598;2023-04-03T07:00:44;2.50;87.50
10891;DHT22;5498;50.928;11.598;2023-04-03T07:03:48;2.60;87.50
10891;DHT22;5498;50.928;11.598;2023-04-03T07:06:51;2.60;86.50
10891;DHT22;5498;50.928;11.598;2023-04-03T07:09:53;2.70;86.20
10891;DHT22;5498;50.928;11.598;2023-04-03T07:12:56;2.80;86.10
10891;DHT22;5498;50.928;11.598;2023-04-03T07:16:00;2.40;84.70
10891;DHT22;5498;50.928;11.598;2023-04-03T07:19:04;2.00;86.60
10891;DHT22;5498;50.928;11.598;2023-04-03T07:22:14;1.90;86.40
10891;DHT22;5498;50.928;11.598;2023-04-03T07:25:17;1.70;86.30
10891;DHT22;5498;50.928;11.598;2023-04-03T07:28:20;1.40;86.90
10891;DHT22;5498;50.928;11.598;2023-04-03T07:31:23;1.30;88.00
10891;DHT22;5498;50.928;11.598;2023-04-03T07:34:25;1.20;87.90
10891;DHT22;5498;50.928;11.598;2023-04-03T07:37:29;1.40;87.90
10891;DHT22;5498;50.928;11.598;2023-04-03T07:40:31;1.30;87.10
10891;DHT22;5498;50.928;11.598;2023-04-03T07:43:33;1.60;87.20
10891;DHT22;5498;50.928;11.598;2023-04-03T07:46:35;1.20;86.40
10891;DHT22;5498;50.928;11.598;2023-04-03T07:49:41;1.30;87.70
10891;DHT22;5498;50.928;11.598;2023-04-03T07:52:45;1.40;87.80
10891;DHT22;5498;50.928;11.598;2023-04-03T07:55:48;1.40;87.30
10891;DHT22;5498;50.928;11.598;2023-04-03T07:58:52;1.40;87.80
10891;DHT22;5498;50.928;11.598;2023-04-03T08:01:54;1.60;87.90
10891;DHT22;5498;50.928;11.598;2023-04-03T08:04:56;1.70;88.10
10891;DHT22;5498;50.928;11.598;2023-04-03T08:07:59;1.80;87.60
10891;DHT22;5498;50.928;11.598;2023-04-03T08:11:02;2.40;86.80
10891;DHT22;5498;50.928;11.598;2023-04-03T08:14:06;2.90;86.10
10891;DHT22;5498;50.928;11.598;2023-04-03T08:17:08;3.10;82.60
10891;DHT22;5498;50.928;11.598;2023-04-03T08:20:12;3.40;83.00
10891;DHT22;5498;50.928;11.598;2023-04-03T08:23:15;3.90;80.90
10891;DHT22;5498;50.928;11.598;2023-04-03T08:26:19;4.30;78.10
10891;DHT22;5498;50.928;11.598;2023-04-03T08:29:22;4.70;76.50
10891;DHT22;5498;50.928;11.598;2023-04-03T08:32:24;5.00;73.40
10891;DHT22;5498;50.928;11.598;2023-04-03T08:35:26;5.10;70.80
10891;DHT22;5498;50.928;11.598;2023-04-03T08:38:29;4.40;68.30
10891;DHT22;5498;50.928;11.598;2023-04-03T08:41:33;3.90;68.20
10891;DHT22;5498;50.928;11.598;2023-04-03T08:44:46;3.70;70.30
10891;DHT22;5498;50.928;11.598;2023-04-03T08:47:53;3.70;71.60
10891;DHT22;5498;50.928;11.598;2023-04-03T08:51:00;4.70;72.80
10891;DHT22;5498;50.928;11.598;2023-04-03T08:54:27;4.90;72.20
10891;DHT22;5498;50.928;11.598;2023-04-03T08:57:33;5.40;69.40
10891;DHT22;5498;50.928;11.598;2023-04-03T09:00:43;5.80;67.80
10891;DHT22;5498;50.928;11.598;2023-04-03T09:03:47;6.10;66.50
10891;DHT22;5498;50.928;11.598;2023-04-03T09:06:54;5.80;63.50
10891;DHT22;5498;50.928;11.598;2023-04-03T09:09:59;5.60;62.70
10891;DHT22;5498;50.928;11.598;2023-04-03T09:13:08;5.80;62.70
10891;DHT22;5498;50.928;11.598;2023-04-03T09:16:25;5.00;60.70
10891;DHT22;5498;50.928;11.598;2023-04-03T09:19:47;4.50;61.60
10891;DHT22;5498;50.928;11.598;2023-04-03T09:22:53;4.70;65.90
10891;DHT22;5498;50.928;11.598;2023-04-03T09:26:02;4.70;65.20
10891;DHT22;5498;50.928;11.598;2023-04-03T09:29:07;4.60;66.50
10891;DHT22;5498;50.928;11.598;2023-04-03T09:32:27;5.20;66.80
10891;DHT22;5498;50.928;11.598;2023-04-03T09:35:34;5.50;65.50
10891;DHT22;5498;50.928;11.598;2023-04-03T09:39:05;4.90;63.10
10891;DHT22;5498;50.928;11.598;2023-04-03T09:42:18;4.00;63.30
10891;DHT22;5498;50.928;11.598;2023-04-03T09:45:30;4.30;65.20
10891;DHT22;5498;50.928;11.598;2023-04-03T09:48:33;4.10;64.00
10891;DHT22;5498;50.928;11.598;2023-04-03T09:51:36;3.60;63.10
10891;DHT22;5498;50.928;11.598;2023-04-03T09:54:48;3.40;65.20
10891;DHT22;5498;50.928;11.598;2023-04-03T09:57:51;3.40;64.00
10891;DHT22;5498;50.928;11.598;2023-04-03T10:00:58;3.60;64.70
10891;DHT22;5498;50.928;11.598;2023-04-03T10:04:08;3.80;64.40
10891;DHT22;5498;50.928;11.598;2023-04-03T10:07:28;3.90;63.70
10891;DHT22;5498;50.928;11.598;2023-04-03T10:10:36;3.50;61.60
10891;DHT22;5498;50.928;11.598;2023-04-03T10:13:55;3.60;61.60
10891;DHT22;5498;50.928;11.598;2023-04-03T10:17:16;4.20;61.60
10891;DHT22;5498;50.928;11.598;2023-04-03T10:20:44;4.20;58.60
10891;DHT22;5498;50.928;11.598;2023-04-03T10:23:52;4.70;61.00
10891;DHT22;5498;50.928;11.598;2023-04-03T10:27:09;4.50;62.30
10891;DHT22;5498;50.928;11.598;2023-04-03T10:30:32;4.80;63.50
10891;DHT22;5498;50.928;11.598;2023-04-03T10:33:48;4.70;64.00
10891;DHT22;5498;50.928;11.598;2023-04-03T10:37:04;4.60;62.40
10891;DHT22;5498;50.928;11.598;2023-04-03T10:40:18;4.30;60.60
10891;DHT22;5498;50.928;11.598;2023-04-03T10:43:32;4.20;62.30
10891;DHT22;5498;50.928;11.598;2023-04-03T10:46:39;4.40;62.80
10891;DHT22;5498;50.928;11.598;2023-04-03T10:49:53;4.40;61.70
10891;DHT22;5498;50.928;11.598;2023-04-03T10:53:04;4.50;61.90
10891;DHT22;5498;50.928;11.598;2023-04-03T10:56:13;3.50;63.70
10891;DHT22;5498;50.928;11.598;2023-04-03T10:59:23;4.50;65.10
10891;DHT22;5498;50.928;11.598;2023-04-03T11:02:31;4.80;66.10
10891;DHT22;5498;50.928;11.598;2023-04-03T11:05:36;5.10;65.70
10891;DHT22;5498;50.928;11.598;2023-04-03T11:08:45;4.90;64.10
10891;DHT22;5498;50.928;11.598;2023-04-03T11:11:50;5.10;65.70
10891;DHT22;5498;50.928;11.598;2023-04-03T11:14:55;5.40;66.00
10891;DHT22;5498;50.928;11.598;2023-04-03T11:18:03;5.50;64.30
10891;DHT22;5498;50.928;11.598;2023-04-03T11:21:11;5.60;64.00
10891;DHT22;5498;50.928;11.598;2023-04-03T11:24:20;5.70;64.70
10891;DHT22;5498;50.928;11.598;2023-04-03T11:27:25;5.80;64.30
10891;DHT22;5498;50.928;11.598;2023-04-03T11:30:34;5.40;63.10
10891;DHT22;5498;50.928;11.598;2023-04-03T11:33:47;5.40;62.80
10891;DHT22;5498;50.928;11.598;2023-04-03T11:36:55;5.40;63.40
10891;DHT22;5498;50.928;11.598;2023-04-03T11:40:02;5.10;63.20
10891;DHT22;5498;50.928;11.598;2023-04-03T11:43:23;4.40;63.00
10891;DHT22;5498;50.928;11.598;2023-04-03T11:46:49;4.30;65.20
10891;DHT22;5498;50.928;11.598;2023-04-03T11:50:00;4.50;63.30
10891;DHT22;5498;50.928;11.598;2023-04-03T11:53:26;4.60;61.20
10891;DHT22;5498;50.928;11.598;2023-04-03T11:56:36;4.80;60.90
10891;DHT22;5498;50.928;11.598;2023-04-03T11:59:38;5.10;61.40
10891;DHT22;5498;50.928;11.598;2023-04-03T12:02:40;5.10;60.30
10891;DHT22;5498;50.928;11.598;2023-04-03T12:05:46;5.40;60.10
10891;DHT22;5498;50.928;11.598;2023-04-03T12:08:50;5.00;59.50
10891;DHT22;5498;50.928;11.598;2023-04-03T12:11:56;5.10;58.70
10891;DHT22;5498;50.928;11.598;2023-04-03T12:18:58;4.70;60.60
10891;DHT22;5498;50.928;11.598;2023-04-03T12:22:22;4.80;62.60
10891;DHT22;5498;50.928;11.598;2023-04-03T12:25:47;5.20;63.80
10891;DHT22;5498;50.928;11.598;2023-04-03T12:28:52;5.40;59.90
10891;DHT22;5498;50.928;11.598;2023-04-03T12:32:07;5.20;58.00
10891;DHT22;5498;50.928;11.598;2023-04-03T12:35:24;5.10;57.70
10891;DHT22;5498;50.928;11.598;2023-04-03T12:38:56;5.30;58.10
10891;DHT22;5498;50.928;11.598;2023-04-03T12:42:18;5.10;57.90
10891;DHT22;5498;50.928;11.598;2023-04-03T12:45:40;4.90;59.20
10891;DHT22;5498;50.928;11.598;2023-04-03T12:48:49;4.50;59.20
10891;DHT22;5498;50.928;11.598;2023-04-03T12:51:52;4.70;61.30
10891;DHT22;5498;50.928;11.598;2023-04-03T12:54:56;5.10;61.60
10891;DHT22;5498;50.928;11.598;2023-04-03T12:58:13;5.20;61.30
10891;DHT22;5498;50.928;11.598;2023-04-03T13:01:19;5.50;61.20
10891;DHT22;5498;50.928;11.598;2023-04-03T13:04:23;5.40;60.20
10891;DHT22;5498;50.928;11.598;2023-04-03T13:07:28;5.20;59.20
10891;DHT22;5498;50.928;11.598;2023-04-03T13:10:46;5.00;59.10
10891;DHT22;5498;50.928;11.598;2023-04-03T13:13:57;4.60;59.00
10891;DHT22;5498;50.928;11.598;2023-04-03T13:17:04;5.00;60.60
10891;DHT22;5498;50.928;11.598;2023-04-03T13:20:14;5.10;59.80
10891;DHT22;5498;50.928;11.598;2023-04-03T13:23:20;5.10;59.60
10891;DHT22;5498;50.928;11.598;2023-04-03T13:26:28;5.00;59.50
10891;DHT22;5498;50.928;11.598;2023-04-03T13:29:33;4.90;59.80
10891;DHT22;5498;50.928;11.598;2023-04-03T13:32:35;4.50;59.80
10891;DHT22;5498;50.928;11.598;2023-04-03T13:35:39;4.40;60.80
10891;DHT22;5498;50.928;11.598;2023-04-03T13:38:42;4.50;62.30
10891;DHT22;5498;50.928;11.598;2023-04-03T13:41:47;4.80;62.20
10891;DHT22;5498;50.928;11.598;2023-04-03T13:45:10;4.90;62.20
10891;DHT22;5498;50.928;11.598;2023-04-03T13:48:20;4.90;61.30
10891;DHT22;5498;50.928;11.598;2023-04-03T13:51:24;4.80;59.60
10891;DHT22;5498;50.928;11.598;2023-04-03T13:54:31;4.90;59.50
10891;DHT22;5498;50.928;11.598;2023-04-03T13:57:36;4.40;59.20
10891;DHT22;5498;50.928;11.598;2023-04-03T14:00:45;4.40;59.80
10891;DHT22;5498;50.928;11.598;2023-04-03T14:03:53;4.30;61.30
10891;DHT22;5498;50.928;11.598;2023-04-03T14:06:57;4.60;60.90
10891;DHT22;5498;50.928;11.598;2023-04-03T14:09:59;4.40;60.40
10891;DHT22;5498;50.928;11.598;2023-04-03T14:13:03;4.30;61.00
10891;DHT22;5498;50.928;11.598;2023-04-03T14:16:05;3.90;61.90
10891;DHT22;5498;50.928;11.598;2023-04-03T14:19:22;3.90;63.10
10891;DHT22;5498;50.928;11.598;2023-04-03T14:22:27;4.30;63.50
10891;DHT22;5498;50.928;11.598;2023-04-03T14:25:31;4.50;62.00
10891;DHT22;5498;50.928;11.598;2023-04-03T14:28:34;4.70;60.80
10891;DHT22;5498;50.928;11.598;2023-04-03T14:31:37;4.60;59.60
10891;DHT22;5498;50.928;11.598;2023-04-03T14:34:39;4.70;59.80
10891;DHT22;5498;50.928;11.598;2023-04-03T14:37:41;4.70;58.90
10891;DHT22;5498;50.928;11.598;2023-04-03T14:40:43;5.00;59.20
10891;DHT22;5498;50.928;11.598;2023-04-03T14:43:47;4.90;58.80
10891;DHT22;5498;50.928;11.598;2023-04-03T14:46:49;4.70;59.80
10891;DHT22;5498;50.928;11.598;2023-04-03T14:49:51;4.40;61.00
10891;DHT22;5498;50.928;11.598;2023-04-03T14:52:55;4.60;61.50
10891;DHT22;5498;50.928;11.598;2023-04-03T14:55:58;4.30;62.00
10891;DHT22;5498;50.928;11.598;2023-04-03T14:59:02;4.50;61.80
10891;DHT22;5498;50.928;11.598;2023-04-03T15:02:27;4.60;61.40
10891;DHT22;5498;50.928;11.598;2023-04-03T15:05:35;4.80;61.10
10891;DHT22;5498;50.928;11.598;2023-04-03T15:08:38;4.80;59.60
10891;DHT22;5498;50.928;11.598;2023-04-03T15:11:41;4.70;59.90
10891;DHT22;5498;50.928;11.598;2023-04-03T15:14:44;4.70;60.10
10891;DHT22;5498;50.928;11.598;2023-04-03T15:17:48;4.70;60.20
10891;DHT22;5498;50.928;11.598;2023-04-03T15:20:54;4.80;60.30
10891;DHT22;5498;50.928;11.598;2023-04-03T15:23:56;4.90;59.70
10891;DHT22;5498;50.928;11.598;2023-04-03T15:27:00;4.80;60.00
10891;DHT22;5498;50.928;11.598;2023-04-03T15:30:04;5.00;60.40
10891;DHT22;5498;50.928;11.598;2023-04-03T15:33:08;4.80;60.70
10891;DHT22;5498;50.928;11.598;2023-04-03T15:36:10;4.50;60.80
10891;DHT22;5498;50.928;11.598;2023-04-03T15:39:11;4.40;61.70
10891;DHT22;5498;50.928;11.598;2023-04-03T15:42:13;4.30;62.30
10891;DHT22;5498;50.928;11.598;2023-04-03T15:45:17;4.10;62.30
10891;DHT22;5498;50.928;11.598;2023-04-03T15:48:19;4.30;62.20
10891;DHT22;5498;50.928;11.598;2023-04-03T15:51:20;4.20;60.50
10891;DHT22;5498;50.928;11.598;2023-04-03T15:54:22;3.90;61.10
10891;DHT22;5498;50.928;11.598;2023-04-03T15:57:25;4.20;61.40
10891;DHT22;5498;50.928;11.598;2023-04-03T16:00:29;3.90;61.20
10891;DHT22;5498;50.928;11.598;2023-04-03T16:03:32;3.80;62.80
10891;DHT22;5498;50.928;11.598;2023-04-03T16:06:34;3.80;62.50
10891;DHT22;5498;50.928;11.598;2023-04-03T16:09:36;3.80;61.60
10891;DHT22;5498;50.928;11.598;2023-04-03T16:12:38;3.70;61.50
10891;DHT22;5498;50.928;11.598;2023-04-03T16:15:42;3.70;62.00
10891;DHT22;5498;50.928;11.598;2023-04-03T16:18:44;3.80;62.00
10891;DHT22;5498;50.928;11.598;2023-04-03T16:21:47;3.90;60.50
10891;DHT22;5498;50.928;11.598;2023-04-03T16:24:50;3.90;58.40
10891;DHT22;5498;50.928;11.598;2023-04-03T16:27:52;3.90;58.90
10891;DHT22;5498;50.928;11.598;2023-04-03T16:30:55;3.80;59.80
10891;DHT22;5498;50.928;11.598;2023-04-03T16:33:56;3.70;61.50
10891;DHT22;5498;50.928;11.598;2023-04-03T16:36:59;3.80;62.90
10891;DHT22;5498;50.928;11.598;2023-04-03T16:40:01;3.70;63.80
10891;DHT22;5498;50.928;11.598;2023-04-03T16:43:03;3.60;65.40
10891;DHT22;5498;50.928;11.598;2023-04-03T16:46:07;3.60;65.00
10891;DHT22;5498;50.928;11.598;2023-04-03T16:49:08;3.60;64.80
10891;DHT22;5498;50.928;11.598;2023-04-03T16:52:11;3.60;63.70
10891;DHT22;5498;50.928;11.598;2023-04-03T16:55:13;3.70;63.60
10891;DHT22;5498;50.928;11.598;2023-04-03T16:58:15;3.40;63.00
10891;DHT22;5498;50.928;11.598;2023-04-03T17:01:19;3.60;63.20
10891;DHT22;5498;50.928;11.598;2023-04-03T17:04:21;3.40;63.20
10891;DHT22;5498;50.928;11.598;2023-04-03T17:07:24;3.20;62.10
10891;DHT22;5498;50.928;11.598;2023-04-03T17:10:26;3.30;62.80
10891;DHT22;5498;50.928;11.598;2023-04-03T17:13:29;3.70;62.80
10891;DHT22;5498;50.928;11.598;2023-04-03T17:16:36;3.40;62.00
10891;DHT22;5498;50.928;11.598;2023-04-03T17:19:39;3.30;62.10
10891;DHT22;5498;50.928;11.598;2023-04-03T17:22:43;3.40;62.80
10891;DHT22;5498;50.928;11.598;2023-04-03T17:25:45;3.30;63.20
10891;DHT22;5498;50.928;11.598;2023-04-03T17:28:46;3.30;64.10
10891;DHT22;5498;50.928;11.598;2023-04-03T17:31:50;3.40;64.20
10891;DHT22;5498;50.928;11.598;2023-04-03T17:34:52;3.30;64.20
10891;DHT22;5498;50.928;11.598;2023-04-03T17:37:54;3.20;64.70
10891;DHT22;5498;50.928;11.598;2023-04-03T17:40:56;3.40;64.60
10891;DHT22;5498;50.928;11.598;2023-04-03T17:43:58;3.20;64.00
10891;DHT22;5498;50.928;11.598;2023-04-03T17:47:02;3.00;62.80
10891;DHT22;5498;50.928;11.598;2023-04-03T17:50:05;3.10;63.60
10891;DHT22;5498;50.928;11.598;2023-04-03T17:53:07;2.90;63.00
10891;DHT22;5498;50.928;11.598;2023-04-03T17:56:11;3.00;62.90
10891;DHT22;5498;50.928;11.598;2023-04-03T17:59:14;3.00;62.70
10891;DHT22;5498;50.928;11.598;2023-04-03T18:02:17;2.80;62.80
10891;DHT22;5498;50.928;11.598;2023-04-03T18:05:19;2.80;63.00
10891;DHT22;5498;50.928;11.598;2023-04-03T18:08:21;2.70;61.40
10891;DHT22;5498;50.928;11.598;2023-04-03T18:11:26;2.90;62.00
10891;DHT22;5498;50.928;11.598;2023-04-03T18:14:28;2.90;62.30
10891;DHT22;5498;50.928;11.598;2023-04-03T18:17:32;2.90;62.60
10891;DHT22;5498;50.928;11.598;2023-04-03T18:20:34;2.60;61.80
10891;DHT22;5498;50.928;11.598;2023-04-03T18:23:36;2.60;62.50
10891;DHT22;5498;50.928;11.598;2023-04-03T18:26:41;2.90;63.00
10891;DHT22;5498;50.928;11.598;2023-04-03T18:29:48;2.70;62.50
10891;DHT22;5498;50.928;11.598;2023-04-03T18:32:53;2.60;62.60
10891;DHT22;5498;50.928;11.598;2023-04-03T18:35:55;2.50;62.50
10891;DHT22;5498;50.928;11.598;2023-04-03T18:38:57;2.50;63.10
10891;DHT22;5498;50.928;11.598;2023-04-03T18:42:04;2.70;62.90
10891;DHT22;5498;50.928;11.598;2023-04-03T18:45:10;2.70;62.80
10891;DHT22;5498;50.928;11.598;2023-04-03T18:48:15;2.70;62.80
10891;DHT22;5498;50.928;11.598;2023-04-03T18:51:17;2.50;62.60
10891;DHT22;5498;50.928;11.598;2023-04-03T18:54:20;2.70;63.30
10891;DHT22;5498;50.928;11.598;2023-04-03T18:57:21;2.50;63.00
10891;DHT22;5498;50.928;11.598;2023-04-03T19:00:23;2.60;63.30
10891;DHT22;5498;50.928;11.598;2023-04-03T19:03:28;2.60;62.70
10891;DHT22;5498;50.928;11.598;2023-04-03T19:06:32;2.80;63.70
10891;DHT22;5498;50.928;11.598;2023-04-03T19:09:34;2.90;62.70
10891;DHT22;5498;50.928;11.598;2023-04-03T19:12:37;2.80;62.30
10891;DHT22;5498;50.928;11.598;2023-04-03T19:15:39;2.60;62.70
10891;DHT22;5498;50.928;11.598;2023-04-03T19:18:42;2.60;62.70
10891;DHT22;5498;50.928;11.598;2023-04-03T19:21:45;2.80;62.70
10891;DHT22;5498;50.928;11.598;2023-04-03T19:24:46;2.80;62.60
10891;DHT22;5498;50.928;11.598;2023-04-03T19:27:48;2.90;62.60
10891;DHT22;5498;50.928;11.598;2023-04-03T19:30:50;2.90;62.80
10891;DHT22;5498;50.928;11.598;2023-04-03T19:33:54;2.90;62.80
10891;DHT22;5498;50.928;11.598;2023-04-03T19:36:56;2.90;63.50
10891;DHT22;5498;50.928;11.598;2023-04-03T19:39:59;3.10;63.20
10891;DHT22;5498;50.928;11.598;2023-04-03T19:43:00;3.10;62.80
10891;DHT22;5498;50.928;11.598;2023-04-03T19:46:02;3.30;63.10
10891;DHT22;5498;50.928;11.598;2023-04-03T19:49:06;3.10;63.20